Airfield :
LOGIN :

Register | Disclaimer

   EN    FR    IT 

 










Legend :    VFR   Marginal VFR   IFR   Intensive IFR   Very Intensive IFR
Visi :
Ceiling :
>= 8 km
>= 3000ft
5 to 8 km
1000 to 3000 ft
1500m to 5 km
500 to 1000 ft
800 to 1500m
200 to 500 ft
< 800m
< 200 ft
Symbols :   Thunderstorms  Fog  Heavy snow  Heavy precipitations  Wind > 20 kt
SIGMETs :     Misc.  Thunderstorms  Icing  Turbulence  Mountain Waves  Volcanic Ashes







- Airport Elevation : 40 ft
- IATA code : RMI


LIPR - Federico Fellini Int. Rimini

CURRENT METAR :
  • 141445Z 22014KT 9999 FEW025 17/07 Q1006

EXPIRED METARs :
  • 141415Z 19008KT 9999 FEW025 SCT040 16/08 Q1006
  • 141345Z 13004KT 9999 FEW025 SCT040 10/08 Q1007
  • 141315Z 10003KT 9999 FEW025 SCT040 10/08 Q1007
  • 141245Z 29003KT 9999 SCT025 SCT040 10/07 Q1008
  • 141215Z 29005KT 9999 SCT025 SCT040 10/08 Q1008

TAF TAF LIPR
Valid from the 14 at 15:00 until the 15 at 00:00 UTC


141400Z 1415/1424 22010KT 9999 SCT050
No reported NOTAMs for that airfield.
2 SIGMETs reported for the Milano FIR (LIMM) :
 
Severe turbulence
LIMM SIGMET 4 VALID 141340/141740 LIIP
LIMM MILANO FIR SEV TURB FCST S OF LINE N4409 E00701 - N4425 E01340 FL020/100 STNR NC=
Severe turbulence
LIMM SIGMET 3 VALID 141340/141740 LIIP
LIMM MILANO FIR SEV TURB FCST WI N4334 E00825 - N4555 E01042 - N4553 E00652 - N4504 E00639 - N4348 E00731 - N4334 E00825 FL100/240 STNR NC=



MET'MAP, your aeronautical weather chart ! - Copyright ORBIFLY December 2007 - Disclaimer

ORBIFLY MET'MAP TEAM :

Programming & Development : Alexandra Zaïnal
Concept & Development : Baudouin d'Aumeries
Co-Development & Prog : Marc-Olivier Méhu
Technical & hardware support : Manuel Goepfert

Contact : metmap@orbifly.com




SOURCES & CREDITS :

   NOAA